Time;durP1;ratioP1;P1;durP2;ratioP2;P2;SDS_P1;SDS_P2;PMS_P1;PMS_P2;Temp;Humidity;BMP_temperature;BMP_pressure;BME280_temperature;BME280_humidity;BME280_pressure;Samples;Min_cycle;Max_cycle;Signal;HPM_P1;HPM_P2
2022/01/04 00:06:40;;;;;;;15.50;5.60;;;;;;;5.24;85.07;97620.50;419079;1315;108664;-41
2022/01/04 00:16:48;;;;;;;10.90;5.70;;;;;;;5.32;84.98;97605.98;418724;1314;97630;-40
2022/01/04 00:26:55;;;;;;;19.10;8.20;;;;;;;5.31;85.16;97605.86;418901;1314;109631;-42
2022/01/04 00:37:03;;;;;;;21.40;9.10;;;;;;;5.25;85.12;97599.94;418875;1315;108830;-40
2022/01/04 00:47:10;;;;;;;12.50;5.70;;;;;;;5.24;85.05;97595.62;418746;1314;97957;-41
2022/01/04 00:57:17;;;;;;;13.00;5.20;;;;;;;5.32;85.07;97592.05;417932;1317;108601;-40
2022/01/04 01:07:24;;;;;;;12.30;4.60;;;;;;;5.42;85.16;97595.47;418076;1317;97596;-39
2022/01/04 01:17:32;;;;;;;15.90;5.70;;;;;;;5.51;85.41;97587.90;417987;1317;111382;-40
2022/01/04 01:27:39;;;;;;;13.30;6.10;;;;;;;5.45;85.47;97571.36;418668;1314;108974;-40
2022/01/04 01:37:46;;;;;;;9.50;4.90;;;;;;;5.37;85.41;97568.15;417950;1316;97968;-41
2022/01/04 01:47:54;;;;;;;8.90;4.20;;;;;;;5.35;85.75;97548.38;418002;1317;111108;-40
2022/01/04 01:58:01;;;;;;;10.10;4.60;;;;;;;5.39;85.85;97539.89;417951;1316;108814;-41
2022/01/04 02:08:07;;;;;;;12.90;6.30;;;;;;;5.45;86.12;97532.95;418143;1317;97537;-40
2022/01/04 02:18:15;;;;;;;10.70;4.30;;;;;;;5.53;86.14;97521.04;420086;1304;109052;-40
2022/01/04 02:28:22;;;;;;;9.20;5.00;;;;;;;5.60;86.22;97508.45;419717;1313;97574;-41
2022/01/04 02:38:29;;;;;;;8.50;4.70;;;;;;;5.58;86.26;97494.61;419701;1313;111386;-40
2022/01/04 02:48:41;;;;;;;10.90;5.10;;;;;;;5.46;86.35;97476.23;419775;1314;108839;-41
2022/01/04 02:58:49;;;;;;;6.70;4.30;;;;;;;5.42;86.36;97473.50;419659;1313;98017;-40
2022/01/04 03:08:57;;;;;;;6.70;4.70;;;;;;;5.45;86.46;97454.73;419783;1313;109598;-42
2022/01/04 03:19:06;;;;;;;9.80;5.50;;;;;;;5.51;86.54;97431.59;419599;1314;108880;-40
2022/01/04 03:29:15;;;;;;;8.70;5.80;;;;;;;5.54;86.53;97412.30;419404;1313;97971;-40
2022/01/04 03:39:22;;;;;;;11.40;5.90;;;;;;;5.52;86.59;97393.16;419556;1313;108883;-40
2022/01/04 03:49:29;;;;;;;8.50;5.30;;;;;;;5.50;86.70;97384.09;418940;1317;97034;-40
2022/01/04 03:59:37;;;;;;;10.00;7.00;;;;;;;5.44;86.82;97378.34;419443;1313;111227;-40
2022/01/04 04:09:44;;;;;;;8.20;6.50;;;;;;;5.28;86.91;97365.02;419256;1313;109019;-41
2022/01/04 04:19:52;;;;;;;8.40;5.90;;;;;;;5.16;86.82;97354.02;418929;1314;97984;-40
2022/01/04 04:29:59;;;;;;;11.60;6.90;;;;;;;5.11;86.92;97348.20;419358;1313;111103;-40
2022/01/04 04:40:08;;;;;;;9.70;5.70;;;;;;;5.08;86.99;97346.46;419314;1313;108857;-41
2022/01/04 04:50:15;;;;;;;5.90;5.30;;;;;;;5.06;86.95;97338.35;419506;1313;97952;-40
2022/01/04 05:00:22;;;;;;;5.70;4.60;;;;;;;5.09;87.19;97328.03;418963;1313;109120;-40
2022/01/04 05:10:31;;;;;;;5.50;4.50;;;;;;;5.08;87.16;97307.74;419789;1313;97571;-41
2022/01/04 05:20:38;;;;;;;6.90;4.30;;;;;;;5.11;87.34;97291.51;419640;1313;110896;-41
2022/01/04 05:30:44;;;;;;;10.10;5.20;;;;;;;5.12;87.47;97290.48;419508;1314;108742;-40
2022/01/04 05:40:51;;;;;;;5.50;4.40;;;;;;;5.13;87.58;97280.66;419459;1314;97976;-40
2022/01/04 05:50:58;;;;;;;11.90;6.80;;;;;;;5.12;87.75;97276.98;419312;1313;108390;-40
2022/01/04 06:01:11;;;;;;;17.40;9.50;;;;;;;5.06;87.81;97265.89;419538;1314;97966;-41
2022/01/04 06:21:38;;;;;;;11.70;7.60;;;;;;;5.30;87.97;97247.02;418507;1314;108851;-40
2022/01/04 06:31:45;;;;;;;13.20;6.70;;;;;;;5.47;87.90;97237.21;419549;1313;97551;-41
2022/01/04 06:41:53;;;;;;;15.80;8.40;;;;;;;5.56;87.87;97222.92;415597;1314;5389412;-40
2022/01/04 06:52:00;;;;;;;12.90;7.90;;;;;;;5.62;87.99;97210.45;419573;1314;97577;-40
2022/01/04 07:02:08;;;;;;;19.80;10.10;;;;;;;5.69;88.08;97198.66;419392;1313;111165;-40
2022/01/04 07:12:16;;;;;;;17.90;9.60;;;;;;;5.79;88.22;97183.92;419690;1313;107908;-39
2022/01/04 07:22:23;;;;;;;20.20;12.10;;;;;;;5.86;88.28;97164.27;419735;1313;97951;-40
2022/01/04 07:32:30;;;;;;;21.00;12.30;;;;;;;5.87;88.33;97149.23;419508;1313;109187;-42
2022/01/04 07:42:37;;;;;;;18.10;10.30;;;;;;;5.92;88.31;97138.11;419877;1313;98613;-41
2022/01/04 07:52:44;;;;;;;16.20;9.20;;;;;;;6.05;88.29;97132.95;419711;1313;111777;-41
2022/01/04 08:02:51;;;;;;;16.10;8.70;;;;;;;6.23;88.46;97119.70;419887;1313;108210;-40
2022/01/04 08:12:57;;;;;;;12.20;6.60;;;;;;;6.39;88.46;97094.52;419817;1313;97973;-40
2022/01/04 08:23:04;;;;;;;12.00;6.60;;;;;;;6.57;88.51;97068.33;420044;1313;107978;-39
2022/01/04 08:33:12;;;;;;;9.60;5.70;;;;;;;6.69;88.52;97045.64;419658;1313;98157;-42
2022/01/04 08:43:19;;;;;;;10.60;6.10;;;;;;;6.62;88.42;97025.74;420069;1314;97679;-41
2022/01/04 08:53:27;;;;;;;9.10;6.10;;;;;;;6.64;88.36;97004.92;420013;1313;109805;-43
2022/01/04 09:03:33;;;;;;;9.20;5.40;;;;;;;6.72;88.38;96986.68;419802;1313;108877;-39
2022/01/04 09:13:43;;;;;;;10.00;5.20;;;;;;;6.81;88.41;96977.64;420210;1313;96907;-40
2022/01/04 09:23:53;;;;;;;12.40;5.30;;;;;;;6.86;88.38;96963.13;419811;1313;109062;-40
2022/01/04 09:34:00;;;;;;;;;;;;;;;6.92;88.37;96938.10;420048;1313;97598;-40
2022/01/04 09:44:07;;;;;;;15.20;6.40;;;;;;;6.96;88.59;96927.58;420092;1313;110742;-40
2022/01/04 09:54:17;;;;;;;9.30;6.40;;;;;;;6.96;88.53;96912.91;420074;1312;108837;-40
2022/01/04 10:04:24;;;;;;;15.90;6.60;;;;;;;7.02;88.39;96902.50;419805;1313;97977;-40
2022/01/04 10:14:35;;;;;;;16.80;8.10;;;;;;;7.15;88.23;96884.64;420170;1313;108864;-41
2022/01/04 10:24:44;;;;;;;18.30;9.00;;;;;;;7.28;88.25;96859.30;419947;1313;97124;-40
2022/01/04 10:34:52;;;;;;;18.90;10.30;;;;;;;7.35;88.19;96837.45;419982;1305;111215;-39
2022/01/04 10:44:59;;;;;;;15.50;8.40;;;;;;;7.34;88.43;96817.34;419923;1313;108921;-40
2022/01/04 10:55:19;;;;;;;15.80;8.70;;;;;;;7.31;87.97;96808.27;419944;1313;97576;-40
2022/01/04 11:05:29;;;;;;;17.20;8.70;;;;;;;7.36;88.11;96787.98;419690;1314;111187;-40
2022/01/04 11:15:35;;;;;;;19.90;9.10;;;;;;;7.45;88.09;96766.86;419916;1314;108936;-41
2022/01/04 11:25:43;;;;;;;15.00;9.10;;;;;;;7.54;88.04;96741.23;420002;1313;97554;-40
2022/01/04 11:35:52;;;;;;;20.40;11.40;;;;;;;7.51;88.15;96719.08;420140;1314;108871;-42
2022/01/04 11:46:00;;;;;;;18.60;8.70;;;;;;;7.49;88.03;96690.46;419999;1313;97599;-41
2022/01/04 11:56:04;;;;;;;17.40;9.00;;;;;;;7.52;88.18;96664.27;420047;1314;109885;-41
2022/01/04 12:06:13;;;;;;;14.80;8.70;;;;;;;7.58;88.27;96647.42;419847;1313;109024;-40
2022/01/04 12:16:30;;;;;;;15.70;8.40;;;;;;;7.60;88.38;96630.55;418747;1314;97899;-42
2022/01/04 12:26:39;;;;;;;15.40;7.90;;;;;;;7.63;88.52;96610.62;419862;1313;109242;-41
2022/01/04 12:36:50;;;;;;;8.20;5.40;;;;;;;7.67;88.60;96589.53;420048;1314;98064;-40
2022/01/04 12:46:57;;;;;;;9.70;4.80;;;;;;;7.72;88.63;96573.38;419688;1313;110246;-40
2022/01/04 12:57:06;;;;;;;9.40;5.00;;;;;;;7.75;88.78;96548.34;420039;1313;109050;-40
2022/01/04 13:07:21;;;;;;;9.40;5.20;;;;;;;7.80;88.79;96527.52;420098;1313;98478;-40
2022/01/04 13:27:35;;;;;;;8.00;4.90;;;;;;;7.95;89.05;96477.25;420107;1313;97833;-41
2022/01/04 13:37:40;;;;;;;8.60;4.50;;;;;;;8.03;88.94;96466.80;420050;1313;110262;-40
2022/01/04 13:47:45;;;;;;;11.00;4.50;;;;;;;8.05;89.05;96454.09;420217;1313;108873;-40
2022/01/04 13:57:53;;;;;;;5.50;3.40;;;;;;;8.07;88.98;96433.81;420003;1314;97941;-40
2022/01/04 14:08:04;;;;;;;7.40;3.80;;;;;;;8.09;89.07;96422.39;420237;1313;108844;-40
2022/01/04 14:18:13;;;;;;;11.40;5.90;;;;;;;8.08;89.10;96406.23;419898;1313;97548;-40
2022/01/04 14:28:26;;;;;;;7.80;4.20;;;;;;;8.06;89.05;96406.29;420201;1313;111338;-39
2022/01/04 14:38:33;;;;;;;7.90;5.20;;;;;;;8.02;89.16;96392.38;416176;1313;5393956;-40
2022/01/04 14:48:40;;;;;;;20.60;9.80;;;;;;;8.00;89.25;96380.60;420226;1314;97861;-41
2022/01/04 14:58:55;;;;;;;15.20;8.50;;;;;;;7.98;89.18;96380.34;419816;1314;108536;-42
2022/01/04 15:09:02;;;;;;;16.20;8.30;;;;;;;7.94;89.33;96355.89;420120;1315;97455;-43
2022/01/04 15:19:10;;;;;;;17.90;10.20;;;;;;;7.89;89.32;96339.38;420151;1313;109820;-41
2022/01/04 15:29:17;;;;;;;24.80;11.00;;;;;;;7.83;89.26;96325.58;418981;1315;108953;-41
2022/01/04 15:39:24;;;;;;;17.60;8.00;;;;;;;7.79;89.22;96319.14;420189;1315;96649;-41
2022/01/04 15:49:33;;;;;;;15.70;8.60;;;;;;;7.76;89.30;96319.89;419043;1315;109017;-40
2022/01/04 15:59:43;;;;;;;15.10;8.50;;;;;;;7.76;89.26;96305.98;419994;1313;97835;-40
2022/01/04 16:09:51;;;;;;;17.70;9.10;;;;;;;7.73;89.30;96291.43;420024;1315;111165;-41
2022/01/04 16:30:23;;;;;;;15.00;7.10;;;;;;;7.77;88.89;96278.48;420099;1314;97106;-44
2022/01/04 16:40:30;;;;;;;13.00;7.60;;;;;;;7.81;88.70;96265.90;419774;1315;108967;-41
2022/01/04 16:50:37;;;;;;;20.40;9.60;;;;;;;7.75;88.65;96262.97;420167;1320;98025;-41
2022/01/04 17:00:44;;;;;;;14.80;7.70;;;;;;;7.74;88.34;96265.66;419948;1314;111376;-40
2022/01/04 17:21:02;;;;;;;17.60;9.60;;;;;;;7.75;88.22;96241.92;419028;1315;97563;-41
2022/01/04 17:31:09;;;;;;;17.30;8.50;;;;;;;7.68;88.29;96234.13;419766;1314;108641;-41
2022/01/04 17:41:17;;;;;;;15.30;7.60;;;;;;;7.64;88.13;96225.35;420200;1314;97883;-40
2022/01/04 17:51:27;;;;;;;12.30;7.70;;;;;;;7.65;88.17;96223.88;419969;1314;111117;-41
2022/01/04 18:01:34;;;;;;;10.50;7.00;;;;;;;7.69;88.32;96218.76;419988;1313;107853;-41
2022/01/04 18:11:51;;;;;;;16.10;9.40;;;;;;;7.72;88.48;96213.41;419921;1313;97965;-41
2022/01/04 18:21:58;;;;;;;14.40;8.30;;;;;;;7.78;88.51;96192.45;420102;1313;108957;-42
2022/01/04 18:32:03;;;;;;;16.50;9.80;;;;;;;7.81;88.73;96176.71;419834;1313;97596;-41
2022/01/04 18:42:07;;;;;;;20.20;11.10;;;;;;;7.79;88.62;96183.77;420226;1315;110693;-44
2022/01/04 18:52:15;;;;;;;17.80;10.90;;;;;;;7.81;88.81;96177.56;420196;1313;108836;-40
2022/01/04 19:02:22;;;;;;;14.30;8.20;;;;;;;7.82;88.88;96182.15;419896;1313;96766;-40
2022/01/04 19:12:30;;;;;;;15.10;8.80;;;;;;;7.85;88.97;96194.06;420146;1315;108936;-41
2022/01/04 19:22:39;;;;;;;14.30;9.30;;;;;;;7.86;89.14;96196.01;419922;1313;96736;-43
2022/01/04 19:42:54;;;;;;;13.10;8.80;;;;;;;7.85;89.20;96196.85;419452;1313;108960;-40
2022/01/04 19:53:02;;;;;;;13.50;8.50;;;;;;;7.85;89.37;96179.54;420309;1315;97958;-41
2022/01/04 20:03:08;;;;;;;15.40;10.20;;;;;;;7.90;89.55;96196.66;419835;1313;109006;-40
2022/01/04 20:13:16;;;;;;;23.60;12.20;;;;;;;7.96;89.70;96210.72;420028;1313;97985;-41
2022/01/04 20:23:23;;;;;;;22.50;15.30;;;;;;;8.03;89.91;96241.05;420102;1315;111261;-41
2022/01/04 20:33:30;;;;;;;23.60;13.70;;;;;;;8.06;90.01;96285.85;419932;1313;108892;-39
2022/01/04 20:43:39;;;;;;;25.50;16.00;;;;;;;8.07;90.23;96305.23;420121;1313;97539;-41
2022/01/04 20:53:47;;;;;;;13.00;7.30;;;;;;;8.00;90.28;96332.60;419917;1314;107861;-40
2022/01/04 21:03:54;;;;;;;6.30;5.00;;;;;;;7.85;90.55;96356.60;419987;1314;97997;-42
2022/01/04 21:14:01;;;;;;;9.70;5.90;;;;;;;7.70;90.76;96376.94;419968;1314;111143;-41
2022/01/04 21:24:08;;;;;;;14.30;7.10;;;;;;;7.51;91.59;96414.73;419929;1313;108852;-42
2022/01/04 21:44:23;;;;;;;7.30;4.50;;;;;;;6.93;92.11;96460.49;419638;1315;109300;-41
2022/01/04 21:54:30;;;;;;;7.60;5.00;;;;;;;6.67;92.04;96493.66;419816;1313;97962;-42
2022/01/04 22:04:38;;;;;;;7.90;5.60;;;;;;;6.33;92.08;96514.29;419684;1313;111188;-41
2022/01/04 22:14:45;;;;;;;6.90;5.70;;;;;;;6.11;91.96;96523.28;419783;1314;109135;-40
2022/01/04 22:24:54;;;;;;;10.10;6.60;;;;;;;6.03;91.90;96552.02;419830;1313;97066;-40
2022/01/04 22:35:01;;;;;;;11.70;7.10;;;;;;;5.97;91.80;96569.45;418002;1313;2655636;-42
2022/01/04 22:45:10;;;;;;;13.00;8.40;;;;;;;5.88;91.87;96594.73;419756;1314;96735;-41
2022/01/04 23:05:24;;;;;;;14.20;9.30;;;;;;;5.79;91.86;96616.32;419011;1317;108905;-39
2022/01/04 23:15:31;;;;;;;13.60;8.50;;;;;;;5.75;91.67;96638.64;419870;1313;97987;-41
2022/01/04 23:35:45;;;;;;;10.90;7.40;;;;;;;5.74;91.54;96673.17;419821;1313;97095;-40
2022/01/04 23:45:53;;;;;;;10.50;7.30;;;;;;;5.54;91.38;96697.22;419765;1314;111917;-42
2022/01/04 23:56:01;;;;;;;21.30;13.30;;;;;;;5.27;91.43;96699.69;419779;1314;109335;-41
